Terminal Aerodrome Forecast
Issued by NWS Grand Rapids, MI

Home | Current Version | Previous Version | Text Only | Print | Product List | Glossary On
Versions: 1 2 3 4 5 6 7 8 9 10 11 12 13 14 15 16
000
FTUS43 KGRR 300400 AAA
TAFGRR
TAF AMD
KGRR 300417Z 3004/3024 17008KT P6SM VCSH SCT060 BKN120
      TEMPO 3005/3006 24015KT 4SM -SHRA BR BKN040
     FM301000 17011KT P6SM VCTS BKN070CB
     FM301200 20012G21KT P6SM BKN035
     FM301800 21012G23KT P6SM VCTS BKN040CB=

USA.gov is the U.S. government's official web portal to all federal, state and local government web resources and services.